OSS weather

Osh Airport
Osh, Osh Region, Kyrgyzstan

Public forecast

Using degrees Celsius for public forecast. Weather courtesy of forecast.io.

Current aviation weather report (METAR) for Osh Airport

Retrieved 2020/04/05 09:00 UTC (13 minutes ago):

UCFO 050900Z 32002MPS 9999 NSC 20/08 Q1017 R12/0///95 NOSIG

Closest aviation forecast (TAF) to Osh Airport

Retrieved 2020/04/05 06:00 UTC (3 hours ago):

TAF UCFO 050444Z 0506/0606 32003G08MPS 6000 SCT050CB BKN100 TEMPO 0506/0512 27007G12MPS 3000 FU SCT030CB TEMPO 0512/0518 24006G11MPS 3000 BR FU BKN030CB PROB40 TEMPO 0512/0518 -TSRA BECMG 0518/0520 17005MPS